Arturo Aravena

Scout - Universidad Catolica
3 Apr 2027
Samstag
Verarbeitung

Persönlichkeit

Anpassungsfähigkeit (20) Ehrgeiz (4) Kontroverse (6) Loyalität (20) Druck (5) Professionalität (10) Fairness (15) Temperament (14)

Profil

Trainerstil Demokratisch
Lizenz Nationale A
Entschlossenheit 11
Menschenführung 9
Motivation 6
Disziplin 7
Arbeitszufriedenheit
98%
Ermüdung
0%
Rolle Scout
Gehalt 40.4K p/W
Vertrag 14.03.2028

Leistung

Verhalten Gut
Trainingseffektivität
41%
Spielerentwicklung
40%
Verletzungsprävention
40%
Taktische Umsetzung
55%

Letzte Ereignisse

Spieler begutachtet jetzt
Nahm an einer Scouting-Besprechung teil jetzt
Empfahl ein Transferziel jetzt
Spieler begutachtet jetzt
Spieler begutachtet jetzt
Spieler begutachtet 7T her
Spieler begutachtet 7T her
Spieler begutachtet 7T her

Aktuell beobachtet

346
Spieler Verein Status Fähigkeit Vertrauen Beobachtet Zuletzt beobachtet Letzte Stimme
Christian Walton Ipswich Town Aktiv 133 / 122 40% 11 02.04.2027 -
Nathan Trott Cardiff City Aktiv 125 / 131 40% 5 02.04.2027 -
Dean Henderson Crystal Palace Aktiv 149 / 144 40% 2 02.04.2027 -
Ognjen Bondžulić Mladost Lucani Aktiv 97 / 110 40% 2 01.04.2027 -
Marcel Reguła Zaglebie Aktiv 106 / 116 40% 2 01.04.2027 -
Adnan Courtois KV Oostende Aktiv 122 / 126 40% 2 01.04.2027 -
Largie Ramazani Leeds United Aktiv 135 / 145 40% 5 31.03.2027 -
Victor Ehibe Real Bamako Aktiv 94 / 95 40% 2 31.03.2027 -
Relebohile Mofokeng Orlando Pirates Aktiv 118 / 132 40% 2 31.03.2027 -
Ronald Swansea City Aktiv 133 / 127 40% 1 31.03.2027 -
Gonçalo Oliveira Benfica Aktiv 110 / 119 40% 1 31.03.2027 -
Alessio Insignito Spezia Aktiv 91 / 98 40% 1 31.03.2027 -
Alex Bass Peterborough United Aktiv 115 / 108 40% 4 29.03.2027 -
Lorenzo Palmisani Frosinone Aktiv 127 / 136 40% 2 29.03.2027 -
Nicolas Schmid Portsmouth Aktiv 124 / 121 40% 1 29.03.2027 -
Edoardo Corvi Parma Aktiv 133 / 135 40% 1 28.03.2027 -
Josh Keeley Luton Town Aktiv 124 / 122 40% 4 27.03.2027 -
Jamie Cumming Oxford United Aktiv 129 / 120 40% 3 27.03.2027 -
Naledi Hlongwane Victoria United Aktiv 92 / 102 40% 2 27.03.2027 -
Anthony Patterson Wrexham Aktiv 129 / 123 40% 1 27.03.2027 -
Markus Jensen Nacional Aktiv 104 / 113 40% 1 27.03.2027 -
Lukas Jensen Millwall Aktiv 124 / 122 40% 6 26.03.2027 -
Simone Scuffet Pisa Aktiv 128 / 123 40% 3 26.03.2027 -
Quilindschy Hartman Burnley Aktiv 141 / 140 40% 1 25.03.2027 -
Milan van Ewijk Coventry City Aktiv 129 / 125 40% 1 25.03.2027 -
Gabriel Gudmundsson Leeds United Aktiv 141 / 134 40% 1 25.03.2027 -
Ibrahim Maza Bayer Leverkusen Aktiv 147 / 142 40% 1 24.03.2027 -
Martim Cunha Porto Aktiv 102 / 103 40% 1 24.03.2027 -
Toni Tamarit Alverca Aktiv 112 / 118 40% 1 24.03.2027 -
Arijanet Murić Sassuolo Aktiv 146 / 139 40% 1 24.03.2027 -
Kostantis Tzolakis Hull City Aktiv 147 / 136 40% 1 24.03.2027 -
Murphy Cooper Plymouth Argyle Aktiv 112 / 107 40% 4 23.03.2027 -
Kirian Wolverhampton Aktiv 141 / 138 40% 2 23.03.2027 -
Radek Vítek Middlesbrough Aktiv 137 / 146 40% 2 23.03.2027 -
Chiquinho Alverca Aktiv 130 / 134 40% 1 23.03.2027 -
Jaden Philogene Ipswich Town Aktiv 141 / 141 40% 1 23.03.2027 -
Mandla Jali SuperSport United Aktiv 119 / 110 40% 1 23.03.2027 -
Percy Erasmus SuperSport United Aktiv 133 / 123 40% 4 21.03.2027 -
Jack Rudoni Coventry City Aktiv 132 / 126 40% 2 21.03.2027 -
Tom Fellows Southampton Aktiv 133 / 132 40% 1 21.03.2027 -
Luciano Gondou CSKA Moscow Aktiv 130 / 126 40% 1 21.03.2027 -
Marcelo Miño Debrecen Aktiv 118 / 120 40% 7 19.03.2027 -
Vladan Kovačević Norwich City Aktiv 121 / 119 40% 5 19.03.2027 -
Patrick Maswanganyi Orlando Pirates Aktiv 119 / 109 40% 5 18.03.2027 -
Carlos Vicente Birmingham Aktiv 144 / 147 40% 3 18.03.2027 -
Helinho Toluca Aktiv 134 / 129 40% 3 17.03.2027 -
Welington Southampton Aktiv 130 / 132 40% 3 17.03.2027 -
Julio Enciso Ipswich Town Aktiv 149 / 142 40% 2 17.03.2027 -
Luis Ureta San Luis Aktiv 105 / 105 30% 1 / 1m 17.03.2027 -
Diego Otoya San Marcos de Arica Aktiv 95 / 98 42% 1 / 1m 17.03.2027 -
Joe Gelhardt Hull City Aktiv 127 / 136 40% 1 17.03.2027 -
Alex Scott Bournemouth Aktiv 152 / 152 40% 1 17.03.2027 -
Ethan Ampadu Leeds United Aktiv 147 / 145 40% 1 17.03.2027 -
Carlos Augusto Inter Aktiv 155 / 148 40% 1 16.03.2027 -
Azor Matusiwa Ipswich Town Aktiv 142 / 143 40% 1 16.03.2027 -
Achraf Bencharki Al Ahly Aktiv 133 / 120 40% 3 14.03.2027 -
Loum Tchaouna Coventry City Aktiv 141 / 147 40% 3 13.03.2027 -
Ander Barrenetxea Real Sociedad Aktiv 149 / 153 40% 1 13.03.2027 -
Finn Azaz Southampton Aktiv 131 / 131 40% 1 13.03.2027 -
Luiz Henrique Zenit Aktiv 145 / 141 40% 3 12.03.2027 -
Kobbie Mainoo Manchester United Aktiv 152 / 163 40% 1 12.03.2027 -
Jaygo van Ommeren Utrecht Aktiv 101 / 111 40% 1 12.03.2027 -
Honest Ahanor Atalanta Aktiv 126 / 133 40% 1 12.03.2027 -
Mohamed-Ali Cho Hull City Aktiv 138 / 131 40% 1 12.03.2027 -
Jean Butez Como Aktiv 140 / 139 40% 3 11.03.2027 -
Elia Caprile Cagliari Aktiv 142 / 152 40% 2 11.03.2027 -
Michael Cooper Sheffield United Aktiv 128 / 136 40% 3 11.03.2027 -
Marcelo Allende Mamelodi Sundowns Aktiv 128 / 131 40% 2 10.03.2027 -
Iqraam Rayners Mamelodi Sundowns Aktiv 137 / 128 40% 1 10.03.2027 -
Matvey Kislyak CSKA Moscow Aktiv 138 / 133 40% 1 09.03.2027 -
Daniel Banjaqui Benfica Aktiv 108 / 117 40% 1 09.03.2027 -
Dmytro Riznyk Shakhtar Aktiv 138 / 147 40% 2 08.03.2027 -
Carl Rushworth Coventry City Aktiv 137 / 139 40% 1 08.03.2027 -
Riley Owen Pergolettese Aktiv 103 / 108 40% 2 06.03.2027 -
Justin Bijlow Genoa Aktiv 152 / 148 40% 2 06.03.2027 -
Caoimhin Kelleher Brentford Aktiv 149 / 149 40% 2 06.03.2027 -
Davinchi Getafe Aktiv 118 / 130 40% 1 06.03.2027 -
Álex Jiménez Bournemouth Aktiv 149 / 145 40% 1 06.03.2027 -
Teboho Williams SuperSport United Aktiv 123 / 127 40% 1 05.03.2027 -
Akinkunmi Amoo Ismaily Aktiv 117 / 113 40% 2 04.03.2027 -
Facundo Torres Shakhtar Aktiv 138 / 141 40% 2 04.03.2027 -
Natan Betis Aktiv 145 / 143 40% 1 04.03.2027 -
Issa Kaboré Wrexham Aktiv 135 / 134 40% 1 04.03.2027 -
Éderson Atalanta Aktiv 161 / 151 40% 1 04.03.2027 -
Lukáš Provod Slavia Prague Aktiv 149 / 145 40% 2 02.03.2027 -
Cian Ashford Cardiff City Aktiv 122 / 121 40% 1 02.03.2027 -
Kauã Elias Shakhtar Aktiv 126 / 131 40% 2 26.02.2027 -
Sayed Abu Farchi Maccabi Tel Aviv Aktiv 122 / 121 40% 1 26.02.2027 -
Exequiel Palacios Ipswich Town Aktiv 159 / 163 40% 1 25.02.2027 -
Malcom Al Jazira Aktiv 148 / 149 40% 1 25.02.2027 -
Alagie Wally Veres Aktiv 90 / 87 40% 1 25.02.2027 -
Rocco Vata Watford Aktiv 123 / 119 40% 1 25.02.2027 -
Dani Ángel Crawley Town Aktiv 87 / 94 40% 1 25.02.2027 -
Moussa Diaby Al-Ittihad Aktiv 156 / 141 40% 3 23.02.2027 -
Oston O'runov Persepolis Aktiv 130 / 128 40% 1 22.02.2027 -
Oumar Camara Vitoria Guimaraes Aktiv 120 / 135 40% 1 21.02.2027 -
Roberto Iliev Slavia Sofia Aktiv 102 / 105 40% 1 21.02.2027 -
Musa Barrow Al-Khaleej Aktiv 141 / 132 40% 1 20.02.2027 -
Marquinhos Spartak Moscow Aktiv 139 / 134 40% 1 20.02.2027 -
Lorenzo Montipò Venezia Aktiv 135 / 135 40% 3 18.02.2027 -
Majid Dejagah Gostaresh Foulad Aktiv 136 / 130 40% 2 18.02.2027 -
Emile Smith Rowe Fulham Aktiv 147 / 145 40% 1 18.02.2027 -
Đorđe Nikolić Cukaricki Aktiv 111 / 122 40% 2 17.02.2027 -
Galeno Al-Ahli Aktiv 155 / 139 40% 1 16.02.2027 -
Oleksandr Saputin Zorya Aktiv 116 / 124 40% 3 13.02.2027 -
Đorđe Petrović Bournemouth Aktiv 152 / 153 40% 1 13.02.2027 -
Ben Ahmed Kohili Paradou Aktiv 102 / 105 40% 1 10.02.2027 -
José Paradela Cruz Azul Aktiv 143 / 140 40% 1 10.02.2027 -
Caleb Yirenkyi Coventry City Aktiv 128 / 132 40% 1 10.02.2027 -
Dylan Lawlor Cardiff City Aktiv 118 / 125 40% 1 10.02.2027 -
Johan Manzambi Aston Villa Aktiv 136 / 143 40% 1 10.02.2027 -
Peter Federico Gornik Zabrze Aktiv 130 / 125 40% 1 07.02.2027 -
Jason Al-Fayha Aktiv 128 / 123 40% 1 07.02.2027 -
Julio Alonso Huesca Aktiv 124 / 128 40% 3 06.02.2027 -
Lebohang Maboe Kaizer Chiefs Aktiv 120 / 115 40% 2 06.02.2027 -
Teboho Tau Ajax Cape Town Aktiv 120 / 114 40% 1 06.02.2027 -
Axel Tape Bayer Leverkusen Aktiv 121 / 137 40% 1 05.02.2027 -
Bernardo Lima Porto Aktiv 100 / 99 40% 1 05.02.2027 -
Diego García Sparta Prague Aktiv 123 / 124 40% 2 04.02.2027 -
Ali Soliman Masr El Makasa Aktiv 119 / 119 40% 3 04.02.2027 -
Julian Weigl Al-Qadisiyah Aktiv 140 / 134 40% 2 04.02.2027 -
Felix Appiah WAFA Aktiv 87 / 97 40% 1 04.02.2027 -
Lucas Agazzi Defensor Sporting Aktiv 121 / 127 40% 1 04.02.2027 -
Tiago Freitas Benfica Aktiv 114 / 113 40% 1 03.02.2027 -
Eitan Cohen Maccabi Petach Tikva Aktiv 81 / 106 40% 1 03.02.2027 -
Michael Noumon Heart of Lions Aktiv 78 / 88 40% 2 01.02.2027 -
Luther Zwane Platinum Stars Aktiv 102 / 108 40% 1 01.02.2027 -
Matvii Burenko Vorskla Aktiv 76 / 77 40% 1 01.02.2027 -
Ivan Pakholiuk Kolos Aktiv 105 / 118 40% 1 31.01.2027 -
Sebastián Meza Huracán Aktiv 130 / 126 40% 5 30.01.2027 -
Iván Arboleda Sarmiento Aktiv 127 / 123 40% 7 30.01.2027 -
Ibrahim Tarek Masr El Makasa Aktiv 131 / 123 40% 2 30.01.2027 -
Itumeleng Tau Ajax Cape Town Aktiv 119 / 107 40% 5 27.01.2027 -
Alex Luna Instituto Aktiv 127 / 127 40% 2 27.01.2027 -
Alejo Dramisino Honved Aktiv 126 / 118 40% 2 27.01.2027 -
Matouš Trmal Teplice Aktiv 126 / 125 40% 3 27.01.2027 -
Pol Tristán Bradford City Aktiv 108 / 116 40% 2 26.01.2027 -
Juan Bezerra Zamalek Aktiv 124 / 119 40% 2 23.01.2027 -
Alexis Alégué Zbrojovka Brno Aktiv 120 / 120 40% 2 23.01.2027 -
Tomás O'Connor Gimnasia y Esgrima Aktiv 127 / 129 40% 1 23.01.2027 -
Dylan Cabral Arsenal Aktiv 101 / 102 40% 1 22.01.2027 -
Matvii Ponomarenko Dynamo Kyiv Aktiv 121 / 128 40% 1 22.01.2027 -
Sifiso Dala Platinum Stars Aktiv 84 / 85 40% 1 22.01.2027 -
Fashion Sakala Al-Fayha Aktiv 134 / 128 40% 1 22.01.2027 -
Nicolás Azambuja Danubio Aktiv 112 / 127 40% 1 19.01.2027 -
Kasra Taheri Sepahan Aktiv 118 / 124 40% 1 19.01.2027 -
David Kalokoh Ajax Aktiv 112 / 113 40% 1 19.01.2027 -
Michele Cerofolini Bari Aktiv 127 / 129 40% 1 18.01.2027 -
Maílson Al-Taawoun Aktiv 132 / 120 40% 3 17.01.2027 -
Daniel Iversen Preston Aktiv 130 / 127 40% 2 15.01.2027 -
Joel Pereira Reading Aktiv 117 / 118 40% 1 14.01.2027 -
Heorhii Yermakov Metalist Aktiv 116 / 118 40% 2 13.01.2027 -
Evgeny Staver Rubin Aktiv 109 / 120 40% 1 13.01.2027 -
Franco Cristaldo Talleres Aktiv 125 / 123 40% 5 12.01.2027 -
Afimico Pululu Al-Hazem Aktiv 126 / 127 40% 3 12.01.2027 -
Luciano Jachfe Nueva Chicago Aktiv 115 / 118 40% 1 10.01.2027 -
Max O'Leary West Bromwich Albion Aktiv 122 / 128 40% 5 08.01.2027 -
Iwan Morgan Grimsby Town Aktiv 105 / 110 40% 1 08.01.2027 -
Sipho Chaine Orlando Pirates Aktiv 125 / 117 40% 1 08.01.2027 -
Gift Zwane Platinum Stars Aktiv 114 / 121 40% 1 07.01.2027 -
Facundo Altamirano San Lorenzo Aktiv 119 / 118 40% 2 06.01.2027 -
Nahuel Galardi Maipú Aktiv 112 / 107 40% 2 06.01.2027 -
Felipe San Juan Gimnasia y Esgrima Aktiv 109 / 115 40% 3 04.01.2027 -
Daniel Sappa San Miguel Aktiv 118 / 120 40% 1 04.01.2027 -
George Wickens Lincoln City Aktiv 121 / 122 40% 2 01.01.2027 -
Joe Lumley Sheffield Wednesday Aktiv 110 / 122 40% 1 01.01.2027 -
Mariano Bracamonte Deportivo Riestra Aktiv 122 / 113 40% 1 29.12.2026 -
Thomas Carrique Andorra Aktiv 122 / 122 40% 1 26.12.2026 -
Edwuin Cetré Estudiantes Aktiv 126 / 124 40% 1 26.12.2026 -
Santiago Luján Al Ain Aktiv 119 / 122 40% 1 24.12.2026 -
Alfredo Garcia La Equidad Aktiv 148 / 142 40% 1 24.12.2026 -
Diego Valencia Gornik Leczna Aktiv 113 / 111 40% 2 23.12.2026 -
Oscar Garrido Dukla Prague Aktiv 117 / 108 40% 1 23.12.2026 -
Nikita Kokarev Krylya Sovetov Aktiv 112 / 121 40% 1 22.12.2026 -
Wladimiro Falcone Lecce Aktiv 147 / 142 40% 2 19.12.2026 -
Mads Hedenstad AGF Aktiv 127 / 112 40% 2 17.12.2026 -
Emilio Di Fulvio Colegiales Aktiv 118 / 113 40% 2 17.12.2026 -
Nicolás Bolcato Independiente Rivadavia Aktiv 108 / 115 40% 1 17.12.2026 -
Axel Openda KV Oostende Aktiv 135 / 129 40% 2 15.12.2026 -
Nahuel Manganelli Dinamo Batumi Aktiv 112 / 115 40% 3 15.12.2026 -
Fernando Valenzuela Queretaro Aktiv 123 / 123 40% 4 15.12.2026 -
Santiago Rodríguez Gimnasia y Esgrima Aktiv 118 / 118 40% 1 15.12.2026 -
Will Mannion Charlton Athletic Aktiv 114 / 115 40% 1 10.12.2026 -
Hernán de la Fuente Instituto Aktiv 124 / 126 40% 4 09.12.2026 -
Joaquín García Vélez Aktiv 130 / 125 40% 1 09.12.2026 -
Ariel Martínez Palestino Verloren 104 / 109 79% 1 04.12.2026 -
Pablo Parra Universidad de Concepcion Aktiv 115 / 111 79% 1 02.12.2026 Befürworten
Esteban Glellel Shonan Bellmare Aktiv 123 / 116 40% 6 01.12.2026 -
Emiliano González Almagro Aktiv 120 / 112 40% 2 01.12.2026 -
Santiago Cáseres Basel Aktiv 132 / 121 40% 3 30.11.2026 -
Felipe Peña Biafore Lanús Aktiv 121 / 126 40% 1 30.11.2026 -
Matías Reali San Lorenzo Aktiv 122 / 123 40% 1 30.11.2026 -
Tomás Marchiori Vélez Aktiv 128 / 133 40% 2 27.11.2026 -
Juan Moreno Cerro Largo Aktiv 120 / 111 40% 1 27.11.2026 -
Aarón Molinas Defensa y Justicia Aktiv 129 / 123 40% 1 26.11.2026 -
Timi Max Elšnik Crvena Zvezda Aktiv 135 / 130 40% 1 26.11.2026 -
Oscar Salomón Newell's Old Boys Aktiv 123 / 120 40% 1 26.11.2026 -
Pedro Ramírez Deportivo Riestra Aktiv 119 / 121 40% 1 26.11.2026 -
Drake Callender Minnesota United FC Aktiv 117 / 118 40% 1 26.11.2026 -
Adrián Spörle Belgrano Aktiv 126 / 123 40% 2 23.11.2026 -
Moussa Dembélé Al-Ettifaq Aktiv 132 / 126 40% 2 22.11.2026 -
Nicolás Fernández Belgrano Aktiv 125 / 124 40% 4 22.11.2026 -
Sławomir Abramowicz Jagiellonia Aktiv 114 / 118 40% 1 22.11.2026 -
Lucas Souto Defensa y Justicia Aktiv 121 / 124 40% 4 20.11.2026 -
Jorge Benítez FCSB Aktiv 103 / 98 40% 2 19.11.2026 -
Alexis Cuello San Lorenzo Aktiv 123 / 121 40% 1 19.11.2026 -
Alan Lescano Argentinos Juniors Aktiv 127 / 132 40% 2 17.11.2026 -
Santiago Longo Belgrano Aktiv 130 / 125 40% 1 17.11.2026 -
César Ibáñez Huracán Aktiv 123 / 124 40% 2 16.11.2026 -
Franco Zapiola Platense Aktiv 124 / 124 40% 1 16.11.2026 -
Lucas Bruera Carabobo Aktiv 119 / 121 40% 6 15.11.2026 -
Adrián Sánchez Belgrano Aktiv 120 / 120 40% 1 15.11.2026 -
Nicolás Zalazar Aldosivi Aktiv 117 / 119 40% 1 15.11.2026 -
Luis Villegas Rodina M Aktiv 79 / 75 40% 1 15.11.2026 -
David Barbona Defensa y Justicia Aktiv 124 / 119 40% 6 12.11.2026 -
Jonás Acevedo Instituto Aktiv 120 / 123 40% 1 12.11.2026 -
Facundo Waller Huracán Aktiv 123 / 124 40% 1 10.11.2026 -
Balázs Tóth Blackburn Rovers Aktiv 121 / 120 40% 1 10.11.2026 -
Matías Galarza Talleres Aktiv 121 / 130 40% 1 08.11.2026 -
Brayan León Mamelodi Sundowns Aktiv 111 / 112 40% 1 08.11.2026 -
Peter Shalulile Mamelodi Sundowns Aktiv 136 / 133 40% 1 08.11.2026 -
Alexander Díaz Deportivo Riestra Aktiv 117 / 120 40% 1 08.11.2026 -
Matías Pellegrini Vélez Aktiv 121 / 114 40% 1 05.11.2026 -
Augusto Schott Talleres Aktiv 126 / 121 40% 1 05.11.2026 -
Rodrigo Herrera Newell's Old Boys Aktiv 125 / 121 40% 1 05.11.2026 -
Santiago González Tigre Aktiv 126 / 131 40% 1 04.11.2026 -
Ignacio Abraham Banfield Aktiv 119 / 120 40% 1 04.11.2026 -
Antony Alonso Deportivo Riestra Aktiv 121 / 126 40% 1 03.11.2026 -
Rodrigo Morínigo Libertad Aktiv 115 / 116 40% 2 01.11.2026 -
Nicolás Tripichio San Lorenzo Aktiv 130 / 129 40% 2 01.11.2026 -
Nazareno Colombo Racing Club Aktiv 125 / 130 40% 1 01.11.2026 -
Fernando Gorriarán Tigres Aktiv 131 / 143 40% 2 31.10.2026 -
Renzo Tesuri Atlético Tucumán Aktiv 121 / 121 40% 1 31.10.2026 -
Joaquín Gho Argentinos Juniors Aktiv 121 / 124 40% 2 27.10.2026 -
Ulises Sánchez Gimnasia y Esgrima Aktiv 127 / 122 40% 2 27.10.2026 -
José Florentín Independiente Rivadavia Aktiv 127 / 120 40% 1 27.10.2026 -
Nicolás Cordero Aldosivi Aktiv 119 / 121 40% 1 26.10.2026 -
Joaquín Correa Estudiantes Aktiv 131 / 131 40% 1 26.10.2026 -
Juan Saborido Platense Aktiv 123 / 120 40% 1 24.10.2026 -
Juan Rocca Gimnasia y Tiro Aktiv 111 / 102 40% 1 22.10.2026 -
Jhonatan Candia Barracas Central Aktiv 122 / 123 40% 1 22.10.2026 -
Matt Freese New York City Aktiv 130 / 126 40% 2 20.10.2026 -
Diego Romero Universitario Aktiv 121 / 124 40% 2 20.10.2026 -
Oswin Appollis Orlando Pirates Aktiv 116 / 122 40% 2 20.10.2026 -
Vojtěch Vorel Mlada Boleslav Aktiv 116 / 109 40% 1 20.10.2026 -
Maximiliano Gómez Nacional Aktiv 120 / 125 40% 1 19.10.2026 -
Leo Ceara Kashima Antlers Aktiv 146 / 128 40% 1 19.10.2026 -
Manuel Roffo Cerro Porteno Aktiv 131 / 130 40% 3 18.10.2026 -
Yuma Suzuki Kashima Antlers Aktiv 134 / 130 40% 2 18.10.2026 -
Renato Solís Lech Aktiv 121 / 126 40% 4 18.10.2026 -
Justin Hammel Grasshopper Aktiv 122 / 113 40% 2 18.10.2026 -
Domagoj Drožđek Tractor Abgelehnt 130 / 125 40% 1 18.10.2026 -
Jindřich Staněk Slavia Prague Aktiv 141 / 142 40% 4 15.10.2026 -
Camilo Durán Bloemfontein Celtic Aktiv 116 / 122 40% 2 15.10.2026 -
Takuma Asano Sanfrecce Hiroshima Aktiv 130 / 140 40% 1 15.10.2026 -
Alexander Nübel Besiktas Aktiv 138 / 146 40% 1 13.10.2026 -
Robert Petkovic Zadar Aktiv 127 / 125 40% 1 12.10.2026 -
Marcelo Torres Gimnasia La Plata Aktiv 117 / 123 40% 1 12.10.2026 -
Talisca Fenerbahce Aktiv 139 / 141 40% 1 12.10.2026 -
Brian Blando Agropecuario Argentino Aktiv 107 / 114 40% 1 11.10.2026 -
Juan Carlos Ortíz Partizan Aktiv 108 / 119 40% 1 11.10.2026 -
Nicolás Campisi Sportivo Luqueno Aktiv 119 / 124 40% 3 09.10.2026 -
Chris Brady Chicago Fire Aktiv 120 / 132 40% 2 08.10.2026 -
Daniil Khudyakov Sturm Graz Aktiv 117 / 129 40% 3 07.10.2026 -
Aljoša Matko Ujpest Aktiv 125 / 121 40% 1 07.10.2026 -
Carles Gil New England Revolution Aktiv 136 / 142 40% 1 07.10.2026 -
Rodin Quiñónes Dinamo Batumi Aktiv 108 / 105 40% 1 07.10.2026 -
Philip Zinckernagel Chicago Fire Aktiv 134 / 132 40% 2 05.10.2026 -
Gonzalo Carneiro Dinamo Zagreb Aktiv 119 / 114 40% 5 05.10.2026 -
Kein Sato FC Tokyo Abgelehnt 138 / 135 40% 2 05.10.2026 -
Stijn Spierings Real Salt Lake Aktiv 116 / 127 40% 1 05.10.2026 -
Veljko Birmančević Ferencvaros Aktiv 130 / 137 40% 2 02.10.2026 -
Harry Toffolo Charlotte Football Club Aktiv 128 / 119 40% 1 02.10.2026 -
Pep Biel Charlotte Football Club Aktiv 131 / 136 40% 2 01.10.2026 -
Santiago Toloza O'Higgins Aktiv 127 / 124 40% 1 01.10.2026 -
Obinna Nwobodo FC Cincinnati Aktiv 124 / 127 40% 1 30.09.2026 -
Sean Zawadzki Columbus Crew Aktiv 113 / 113 40% 1 30.09.2026 -
Iñaki Peña Panathinaikos Aktiv 136 / 146 40% 2 27.09.2026 -
John Pulskamp Sporting Kansas City Aktiv 112 / 116 40% 2 26.09.2026 -
Angel Zamudio Sport Huancayo Aktiv 117 / 114 40% 1 26.09.2026 -
Javier Martínez Almirante Brown Aktiv 110 / 104 40% 1 26.09.2026 -
Eduard Löwen San Jose Earthquakes Aktiv 128 / 130 40% 1 23.09.2026 -
Denis Bouanga Los Angeles Football Club Aktiv 138 / 139 40% 2 23.09.2026 -
Sergi Palencia Los Angeles Football Club Aktiv 127 / 132 40% 1 23.09.2026 -
Gerard Deulofeu Slavia Prague Aktiv 114 / 113 40% 2 21.09.2026 -
Jonathan Cañete Portuguesa Aktiv 112 / 109 40% 1 21.09.2026 -
Jonathan Rodríguez Besiktas Aktiv 125 / 115 40% 2 20.09.2026 -
Gabriel Ávalos Aktiv 125 / 120 40% 2 20.09.2026 -
Keagan Mothiba SuperSport United Aktiv 115 / 106 40% 1 20.09.2026 -
Alejandro Valencia La Equidad Aktiv 118 / 118 40% 2 19.09.2026 -
James Pantemis Portland Timbers Aktiv 121 / 114 40% 2 19.09.2026 -
Christian Früchtl Red Bull Salzburg Aktiv 117 / 116 40% 1 19.09.2026 -
Francisco González Metilli Belgrano Aktiv 123 / 129 40% 1 17.09.2026 -
Jack Harrison New England Revolution Aktiv 125 / 124 40% 1 17.09.2026 -
Roman Celentano FC Cincinnati Aktiv 113 / 122 40% 1 17.09.2026 -
Rubén Blanco Yokohama F. Marinos Aktiv 129 / 126 40% 2 16.09.2026 -
Aníbal Moreno River Plate Aktiv 129 / 130 40% 1 14.09.2026 -
Lautaro Amadé Defensa y Justicia Aktiv 113 / 118 40% 2 13.09.2026 -
Cristopher Varela Deportivo La Guaira Aktiv 112 / 118 40% 1 12.09.2026 -
Svetoslav Vutsov Levski Aktiv 126 / 115 40% 1 12.09.2026 -
Zack Steffen Colorado Rapids Aktiv 129 / 123 40% 1 11.09.2026 -
Leandro Andrade Polissia Aktiv 129 / 131 40% 1 10.09.2026 -
Tomás Alarcón Colo-Colo Aktiv 121 / 118 40% 1 10.09.2026 -
Antoine Griezmann Orlando City Aktiv 152 / 158 40% 1 09.09.2026 -
Patrick Pentz Brondby Aktiv 129 / 132 40% 2 08.09.2026 -
Keisuke Osako Sanfrecce Hiroshima Aktiv 136 / 129 40% 1 08.09.2026 -
Evidence Billiat Ajax Cape Town Aktiv 105 / 106 40% 1 07.09.2026 -
Miguel Vargas Universitario Aktiv 117 / 114 40% 2 05.09.2026 -
Adrián Alavés Aktiv 113 / 116 40% 1 05.09.2026 -
Hansel Zapata FCSB Aktiv 112 / 107 40% 1 02.09.2026 -
Richard Celis Zamora Aktiv 106 / 108 40% 1 02.09.2026 -
Michael Vadulli Audax Italiano Aktiv 111 / 104 40% 1 02.09.2026 -
Ramiro Ruiz Rodríguez Atlético Tucumán Aktiv 123 / 122 40% 2 01.09.2026 -
Alex Valera Universitario Aktiv 123 / 123 40% 2 01.09.2026 -
Alan Cantero Alianza Lima Aktiv 121 / 123 40% 1 29.08.2026 -
José Barreto Fehervar Aktiv 115 / 115 40% 2 27.08.2026 -
Braian Romero Olimpia Aktiv 124 / 123 40% 1 26.08.2026 -
José Alí Meza Deportivo La Guaira Aktiv 110 / 115 40% 2 25.08.2026 -
Robin Lod Chicago Fire Aktiv 135 / 125 40% 1 25.08.2026 -
Andreas Hansen FC Nordsjaelland Aktiv 117 / 117 40% 1 24.08.2026 -
Rubén Rojas Portuguesa Aktiv 111 / 105 40% 2 22.08.2026 -
Johar Mejía Rapid Wien Aktiv 103 / 114 40% 1 21.08.2026 -
Michael Hoyos Aktiv 130 / 123 40% 1 20.08.2026 -
Dayne St. Clair Inter Miami CF Aktiv 117 / 129 40% 2 19.08.2026 -
Taisei Miyashiro Seattle Sounders Aktiv 133 / 125 40% 1 17.08.2026 -
Dániel Gazdag Columbus Crew Aktiv 130 / 135 40% 1 17.08.2026 -
Anthony Racioppi Sion Aktiv 119 / 115 40% 1 17.08.2026 -
Alejandro Hohberg Cienciano Aktiv 117 / 115 40% 1 15.08.2026 -
Federico Girotti Alianza Lima Aktiv 120 / 119 40% 1 14.08.2026 -
Santiago Rojas Nacional Aktiv 120 / 113 40% 1 12.08.2026 -
Derlis Gonzalez Olimpia Aktiv 125 / 121 40% 1 12.08.2026 -
Angus Gunn San Jose Earthquakes Aktiv 122 / 122 40% 1 10.08.2026 -
Răzvan Sava Universitatea Craiova Aktiv 120 / 126 40% 1 10.08.2026 -
Jesús Hernández Estudiantes de Merida Aktiv 116 / 110 40% 1 10.08.2026 -
Joao Villamarín Cienciano Aktiv 114 / 114 40% 1 10.08.2026 -
Ľubomír Belko Viking Aktiv 116 / 127 40% 1 07.08.2026 -
Walter González Sportivo Luqueno Aktiv 115 / 116 40% 1 06.08.2026 -
Sebastián Ferreira Olimpia Aktiv 118 / 124 40% 1 05.08.2026 -
Jorge Recalde Guarani Aktiv 120 / 119 40% 1 05.08.2026 -
Harold Santiago Mosquera Cerro Porteno Aktiv 121 / 118 40% 1 05.08.2026 -
Freddie Woodman Liverpool Aktiv 106 / 108 40% 1 04.08.2026 -
Bénie Traoré New York City Aktiv 129 / 119 40% 1 03.08.2026 -
Juan Mosquera Portland Timbers Aktiv 118 / 127 40% 1 03.08.2026 -
Alejandro Zendejas Club America Aktiv 142 / 130 40% 1 02.08.2026 -
Peio Canales Athletic Bilbao Aktiv 133 / 130 40% 1 02.08.2026 -
Toni Lato Mallorca Aktiv 119 / 117 40% 1 02.08.2026 -